createdAt,value
2017-12-15T00:00:09.951Z,87.30
2017-12-15T00:02:36.519Z,87.50
2017-12-15T00:05:02.784Z,87.50
2017-12-15T00:07:29.060Z,86.60
2017-12-15T00:09:55.676Z,86.00
2017-12-15T00:12:22.277Z,85.40
2017-12-15T00:14:48.551Z,85.40
2017-12-15T00:17:14.816Z,85.30
2017-12-15T00:19:41.065Z,85.40
2017-12-15T00:22:07.300Z,86.20
2017-12-15T00:24:33.577Z,86.20
2017-12-15T00:26:59.823Z,86.40
2017-12-15T00:29:26.039Z,86.50
2017-12-15T00:31:52.344Z,86.40
2017-12-15T00:34:18.581Z,86.60
2017-12-15T00:36:45.195Z,86.80
2017-12-15T00:39:11.452Z,86.80
2017-12-15T00:41:38.042Z,87.90
2017-12-15T00:44:04.364Z,87.90
2017-12-15T00:46:30.590Z,88.80
2017-12-15T00:48:56.833Z,88.60
2017-12-15T00:51:23.646Z,88.50
2017-12-15T00:53:49.901Z,87.80
2017-12-15T00:56:16.193Z,88.10
2017-12-15T00:58:42.413Z,87.70
2017-12-15T01:01:08.615Z,87.90
2017-12-15T01:03:34.847Z,88.60
2017-12-15T01:06:01.043Z,87.80
2017-12-15T01:08:27.301Z,87.90
2017-12-15T01:10:53.502Z,87.20
2017-12-15T01:13:19.773Z,87.70
2017-12-15T01:15:46.002Z,87.60
2017-12-15T01:18:12.222Z,87.60
2017-12-15T01:20:38.826Z,88.60
2017-12-15T01:23:05.049Z,88.70
2017-12-15T01:25:31.321Z,88.70
2017-12-15T01:27:57.563Z,88.30
2017-12-15T01:30:23.772Z,88.40
2017-12-15T01:32:50.898Z,88.90
2017-12-15T01:35:17.123Z,88.90
2017-12-15T01:37:43.726Z,89.60
2017-12-15T01:40:09.985Z,89.60
2017-12-15T01:42:36.220Z,89.90
2017-12-15T01:45:02.449Z,90.00
2017-12-15T01:47:28.720Z,90.00
2017-12-15T01:49:55.931Z,89.90
2017-12-15T01:52:22.559Z,89.70
2017-12-15T01:54:48.932Z,89.70
2017-12-15T01:57:15.156Z,89.30
2017-12-15T01:59:41.427Z,89.20
2017-12-15T02:02:07.647Z,89.10
2017-12-15T02:04:33.880Z,89.30
2017-12-15T02:07:00.157Z,89.00
2017-12-15T02:09:26.808Z,88.60
2017-12-15T02:11:53.076Z,88.60
2017-12-15T02:14:19.892Z,88.90
2017-12-15T02:16:46.149Z,88.90
2017-12-15T02:19:12.462Z,89.20
2017-12-15T02:21:38.692Z,89.00
2017-12-15T02:24:04.930Z,88.90
2017-12-15T02:26:31.139Z,89.00
2017-12-15T02:28:57.369Z,89.40
2017-12-15T02:31:23.572Z,89.30
2017-12-15T02:33:49.844Z,89.50
2017-12-15T02:36:16.033Z,89.70
2017-12-15T02:38:42.225Z,89.50
2017-12-15T02:41:08.514Z,89.50
2017-12-15T02:43:34.737Z,88.90
2017-12-15T02:46:01.045Z,87.80
2017-12-15T02:48:27.772Z,88.20
2017-12-15T02:50:54.381Z,88.20
2017-12-15T02:53:20.743Z,88.20
2017-12-15T02:55:47.369Z,89.30
2017-12-15T02:58:14.021Z,89.70
2017-12-15T03:00:40.606Z,89.90
2017-12-15T03:03:06.821Z,89.80
2017-12-15T03:05:33.114Z,90.00
2017-12-15T03:07:59.777Z,89.90
2017-12-15T03:10:26.004Z,89.90
2017-12-15T03:12:52.276Z,90.60
2017-12-15T03:15:18.513Z,90.10
2017-12-15T03:17:44.760Z,89.80
2017-12-15T03:20:11.033Z,90.20
2017-12-15T03:22:37.264Z,90.20
2017-12-15T03:25:03.549Z,89.70
2017-12-15T03:27:29.784Z,89.90
2017-12-15T03:29:56.086Z,90.20
2017-12-15T03:32:22.350Z,90.20
2017-12-15T03:34:48.598Z,90.10
2017-12-15T03:37:14.836Z,89.50
2017-12-15T03:39:41.090Z,88.60
2017-12-15T03:42:07.362Z,88.20
2017-12-15T03:44:33.936Z,87.70
2017-12-15T03:47:00.176Z,87.70
2017-12-15T03:49:26.449Z,87.30
2017-12-15T03:51:53.047Z,87.60
2017-12-15T03:54:19.256Z,87.60
2017-12-15T03:56:45.469Z,86.80
2017-12-15T03:59:11.703Z,87.50
2017-12-15T04:01:37.899Z,87.70
2017-12-15T04:04:04.150Z,87.70
2017-12-15T04:06:30.410Z,87.60
2017-12-15T04:08:56.623Z,87.90
2017-12-15T04:11:22.812Z,87.60
2017-12-15T04:13:49.038Z,87.90
2017-12-15T04:16:15.289Z,87.80
2017-12-15T04:18:41.531Z,87.50
2017-12-15T04:21:07.761Z,88.10
2017-12-15T04:23:33.973Z,87.50
2017-12-15T04:26:00.180Z,87.00
2017-12-15T04:28:26.464Z,86.90
2017-12-15T04:30:52.761Z,87.60
2017-12-15T04:33:18.994Z,87.80
2017-12-15T04:35:45.267Z,88.10
2017-12-15T04:38:11.531Z,87.60
2017-12-15T04:40:37.796Z,87.70
2017-12-15T04:43:04.038Z,87.70
2017-12-15T04:45:30.287Z,87.50
2017-12-15T04:47:56.911Z,87.60
2017-12-15T04:50:23.165Z,87.70
2017-12-15T04:52:49.743Z,87.90
2017-12-15T04:55:16.077Z,87.90
2017-12-15T04:57:42.458Z,87.70
2017-12-15T05:00:09.677Z,88.20
2017-12-15T05:02:35.936Z,88.20
2017-12-15T05:05:08.947Z,88.50
2017-12-15T05:07:35.173Z,88.30
2017-12-15T05:10:01.868Z,89.30
2017-12-15T05:12:28.132Z,89.30
2017-12-15T05:14:54.454Z,89.20
2017-12-15T05:17:21.131Z,88.70
2017-12-15T05:19:47.357Z,88.70
2017-12-15T05:22:13.574Z,88.20
2017-12-15T05:24:39.842Z,88.20
2017-12-15T05:27:06.092Z,88.60
2017-12-15T05:29:32.366Z,89.00
2017-12-15T05:31:58.692Z,89.00
2017-12-15T05:34:24.924Z,88.70
2017-12-15T05:36:51.239Z,88.20
2017-12-15T05:39:17.946Z,88.30
2017-12-15T05:41:44.159Z,88.00
2017-12-15T05:44:11.397Z,88.30
2017-12-15T05:46:38.116Z,88.30
2017-12-15T05:49:04.332Z,88.40
2017-12-15T05:51:30.559Z,88.20
2017-12-15T05:53:56.832Z,88.70
2017-12-15T05:56:23.072Z,88.90
2017-12-15T05:58:49.382Z,88.80
2017-12-15T06:01:15.629Z,88.70
2017-12-15T06:03:41.916Z,89.00
2017-12-15T06:06:08.119Z,88.70
2017-12-15T06:08:35.196Z,89.10
2017-12-15T06:11:01.404Z,89.20
2017-12-15T06:13:27.622Z,89.10
2017-12-15T06:15:53.991Z,89.10
2017-12-15T06:18:20.201Z,88.90
2017-12-15T06:20:46.482Z,89.20
2017-12-15T06:23:12.710Z,89.20
2017-12-15T06:25:39.907Z,89.50
2017-12-15T06:28:06.088Z,89.10
2017-12-15T06:30:32.353Z,89.60
2017-12-15T06:32:58.648Z,88.70
2017-12-15T06:35:24.920Z,88.50
2017-12-15T06:37:51.203Z,88.90
2017-12-15T06:40:17.452Z,88.70
2017-12-15T06:42:43.722Z,88.60
2017-12-15T06:45:10.067Z,88.50
2017-12-15T06:47:36.348Z,88.40
2017-12-15T06:50:02.585Z,88.00
2017-12-15T06:52:28.914Z,88.30
2017-12-15T06:54:55.523Z,88.10
2017-12-15T06:57:22.170Z,88.10
2017-12-15T06:59:48.797Z,88.10
2017-12-15T07:02:15.853Z,87.70
2017-12-15T07:04:42.459Z,87.70
2017-12-15T07:07:08.685Z,87.70
2017-12-15T07:09:34.937Z,87.70
2017-12-15T07:12:01.150Z,87.90
2017-12-15T07:14:27.484Z,88.30
2017-12-15T07:16:53.834Z,88.10
2017-12-15T07:19:20.448Z,87.40
2017-12-15T07:21:46.812Z,87.40
2017-12-15T07:24:13.104Z,87.30
2017-12-15T07:26:39.572Z,87.20
2017-12-15T07:29:05.941Z,87.40
2017-12-15T07:31:32.475Z,87.30
2017-12-15T07:33:58.712Z,87.30
2017-12-15T07:36:24.946Z,87.20
2017-12-15T07:38:51.167Z,87.30
2017-12-15T07:41:17.446Z,87.10
2017-12-15T07:43:44.057Z,86.30
2017-12-15T07:46:10.354Z,86.30
2017-12-15T07:48:36.614Z,85.60
2017-12-15T07:51:02.908Z,86.40
2017-12-15T07:53:29.228Z,86.00
2017-12-15T07:55:55.644Z,85.70
2017-12-15T07:58:22.249Z,85.70
2017-12-15T08:00:48.527Z,85.70
2017-12-15T08:03:14.773Z,85.20
2017-12-15T08:05:41.061Z,85.10
2017-12-15T08:08:07.336Z,85.30
2017-12-15T08:10:33.616Z,85.70
2017-12-15T08:13:00.200Z,85.40
2017-12-15T08:15:26.565Z,85.40
2017-12-15T08:17:52.851Z,85.30
2017-12-15T08:20:19.102Z,84.70
2017-12-15T08:22:45.355Z,84.00
2017-12-15T08:25:11.592Z,83.60
2017-12-15T08:27:38.202Z,82.90
2017-12-15T08:30:04.464Z,82.90
2017-12-15T08:32:30.787Z,82.60
2017-12-15T08:34:57.181Z,82.40
2017-12-15T08:37:23.414Z,82.90
2017-12-15T08:39:49.703Z,82.50
2017-12-15T08:42:16.045Z,82.60
2017-12-15T08:44:42.581Z,82.60
2017-12-15T08:47:08.938Z,81.80
2017-12-15T08:49:35.885Z,81.90
2017-12-15T08:52:02.192Z,80.90
2017-12-15T08:54:28.425Z,80.70
2017-12-15T08:56:54.703Z,80.90
2017-12-15T08:59:20.977Z,80.50
2017-12-15T09:01:47.238Z,80.80
2017-12-15T09:04:19.544Z,80.20
2017-12-15T09:06:46.186Z,80.20
2017-12-15T09:09:12.884Z,80.20
2017-12-15T09:11:39.127Z,81.00
2017-12-15T09:14:05.374Z,79.80
2017-12-15T09:16:32.023Z,78.80
2017-12-15T09:18:58.226Z,78.80
2017-12-15T09:21:24.474Z,79.20
2017-12-15T09:23:51.094Z,78.50
2017-12-15T09:26:17.494Z,78.50
2017-12-15T09:28:43.696Z,77.70
2017-12-15T09:31:09.974Z,77.40
2017-12-15T09:33:36.318Z,76.90
2017-12-15T09:36:02.587Z,75.80
2017-12-15T09:38:28.835Z,75.20
2017-12-15T09:40:55.135Z,76.00
2017-12-15T09:43:21.341Z,74.10
2017-12-15T09:45:47.595Z,74.30
2017-12-15T09:48:13.944Z,74.60
2017-12-15T09:50:40.206Z,75.00
2017-12-15T09:53:06.821Z,74.40
2017-12-15T09:55:33.474Z,74.40
2017-12-15T09:57:59.703Z,74.90
2017-12-15T10:00:26.003Z,74.80
2017-12-15T10:02:52.292Z,73.60
2017-12-15T10:05:18.504Z,72.90
2017-12-15T10:07:51.550Z,72.50
2017-12-15T10:10:18.221Z,72.70
2017-12-15T10:12:44.478Z,71.20
2017-12-15T10:15:10.728Z,71.30
2017-12-15T10:17:36.979Z,69.90
2017-12-15T10:20:03.239Z,70.40
2017-12-15T10:22:29.629Z,70.70
2017-12-15T10:24:55.937Z,71.10
2017-12-15T10:27:29.131Z,69.40
2017-12-15T10:29:55.467Z,70.10
2017-12-15T10:32:21.783Z,67.80
2017-12-15T10:34:48.072Z,64.50
2017-12-15T10:37:14.365Z,63.00
2017-12-15T10:39:41.057Z,61.80
2017-12-15T10:42:07.311Z,61.80
2017-12-15T10:44:33.562Z,63.10
2017-12-15T10:46:59.816Z,63.10
2017-12-15T10:49:26.023Z,63.20
2017-12-15T10:51:52.243Z,63.90
2017-12-15T10:54:18.447Z,64.70
2017-12-15T10:56:44.985Z,64.70
2017-12-15T10:59:11.236Z,63.80
2017-12-15T11:01:37.460Z,62.90
2017-12-15T11:04:03.670Z,63.10
2017-12-15T11:06:29.918Z,65.10
2017-12-15T11:08:56.284Z,64.60
2017-12-15T11:11:22.516Z,64.50
2017-12-15T11:13:48.795Z,64.30
2017-12-15T11:16:15.071Z,64.30
2017-12-15T11:18:41.321Z,64.30
2017-12-15T11:21:07.782Z,64.60
2017-12-15T11:23:34.012Z,63.60
2017-12-15T11:26:00.732Z,63.30
2017-12-15T11:28:26.999Z,61.60
2017-12-15T11:30:53.294Z,62.50
2017-12-15T11:33:19.691Z,63.50
2017-12-15T11:35:45.944Z,64.20
2017-12-15T11:38:12.226Z,64.00
2017-12-15T11:40:38.461Z,62.90
2017-12-15T11:43:04.756Z,63.20
2017-12-15T11:45:30.980Z,62.70
2017-12-15T11:47:57.286Z,62.90
2017-12-15T11:50:24.077Z,60.70
2017-12-15T11:52:50.312Z,60.70
2017-12-15T11:55:16.631Z,61.00
2017-12-15T11:57:42.868Z,61.60
2017-12-15T12:00:09.154Z,59.50
2017-12-15T12:02:35.930Z,61.60
2017-12-15T12:05:02.270Z,61.60
2017-12-15T12:07:28.489Z,62.70
2017-12-15T12:09:54.729Z,63.60
2017-12-15T12:12:20.968Z,64.00
2017-12-15T12:14:47.266Z,65.00
2017-12-15T12:17:14.098Z,64.40
2017-12-15T12:19:40.776Z,64.70
2017-12-15T12:22:06.989Z,64.80
2017-12-15T12:24:33.241Z,64.60
2017-12-15T12:26:59.500Z,64.80
2017-12-15T12:29:26.138Z,62.60
2017-12-15T12:31:52.740Z,63.00
2017-12-15T12:34:19.000Z,63.00
2017-12-15T12:36:45.685Z,63.00
2017-12-15T12:39:11.899Z,63.10
2017-12-15T12:41:38.125Z,62.70
2017-12-15T12:44:04.357Z,61.50
2017-12-15T12:46:30.602Z,61.90
2017-12-15T12:48:57.586Z,63.10
2017-12-15T12:51:23.817Z,63.20
2017-12-15T12:53:50.421Z,65.10
2017-12-15T12:56:16.725Z,65.10
2017-12-15T12:58:42.956Z,65.10
2017-12-15T13:01:09.276Z,65.40
2017-12-15T13:03:35.522Z,65.00
2017-12-15T13:06:01.775Z,64.60
2017-12-15T13:08:28.030Z,64.20
2017-12-15T13:10:54.729Z,65.60
2017-12-15T13:13:20.960Z,65.60
2017-12-15T13:15:48.168Z,63.50
2017-12-15T13:18:14.455Z,62.30
2017-12-15T13:20:41.516Z,63.20
2017-12-15T13:23:08.451Z,64.70
2017-12-15T13:25:35.145Z,66.40
2017-12-15T13:28:01.402Z,66.40
2017-12-15T13:30:27.709Z,66.40
2017-12-15T13:32:53.996Z,66.20
2017-12-15T13:35:20.675Z,63.00
2017-12-15T13:37:46.961Z,63.00
2017-12-15T13:40:14.214Z,61.90
2017-12-15T13:42:40.482Z,62.90
2017-12-15T13:45:06.749Z,64.30
2017-12-15T13:47:33.038Z,65.40
2017-12-15T13:49:59.334Z,66.30
2017-12-15T13:52:25.640Z,66.50
2017-12-15T13:54:51.942Z,66.90
2017-12-15T13:57:18.217Z,67.00
2017-12-15T13:59:44.562Z,66.80
2017-12-15T14:02:11.187Z,67.60
2017-12-15T14:04:37.463Z,67.60
2017-12-15T14:07:03.753Z,67.70
2017-12-15T14:09:30.093Z,67.90
2017-12-15T14:11:56.268Z,67.50
2017-12-15T14:14:22.505Z,67.30
2017-12-15T14:16:48.762Z,67.00
2017-12-15T14:19:15.393Z,67.50
2017-12-15T14:21:41.630Z,67.50
2017-12-15T14:24:08.237Z,68.40
2017-12-15T14:26:34.485Z,68.40
2017-12-15T14:29:00.760Z,68.50
2017-12-15T14:31:27.026Z,69.10
2017-12-15T14:33:53.304Z,69.10
2017-12-15T14:36:19.620Z,69.40
2017-12-15T14:38:46.312Z,70.80
2017-12-15T14:41:12.600Z,70.80
2017-12-15T14:43:38.871Z,70.30
2017-12-15T14:46:05.211Z,70.80
2017-12-15T14:48:31.498Z,70.40
2017-12-15T14:50:57.726Z,71.20
2017-12-15T14:53:24.625Z,70.90
2017-12-15T14:55:51.892Z,70.70
2017-12-15T14:58:18.513Z,71.20
2017-12-15T15:00:44.873Z,71.20
2017-12-15T15:03:11.120Z,71.40
2017-12-15T15:05:37.390Z,71.40
2017-12-15T15:08:03.656Z,71.60
2017-12-15T15:10:29.939Z,71.60
2017-12-15T15:12:56.234Z,71.60
2017-12-15T15:15:22.552Z,71.90
2017-12-15T15:17:48.820Z,72.50
2017-12-15T15:20:15.048Z,72.70
2017-12-15T15:22:41.319Z,73.00
2017-12-15T15:25:07.545Z,73.20
2017-12-15T15:27:34.390Z,74.10
2017-12-15T15:30:00.622Z,74.10
2017-12-15T15:32:26.859Z,73.70
2017-12-15T15:34:53.152Z,73.50
2017-12-15T15:37:19.430Z,73.90
2017-12-15T15:39:45.721Z,73.90
2017-12-15T15:42:11.996Z,74.00
2017-12-15T15:44:38.306Z,74.00
2017-12-15T15:47:04.950Z,75.00
2017-12-15T15:49:31.221Z,75.00
2017-12-15T15:51:57.503Z,75.10
2017-12-15T15:54:23.796Z,75.40
2017-12-15T15:56:50.107Z,75.60
2017-12-15T15:59:16.373Z,75.80
2017-12-15T16:01:42.695Z,75.80
2017-12-15T16:04:09.967Z,75.80
2017-12-15T16:06:36.272Z,76.10
2017-12-15T16:09:02.530Z,75.80
2017-12-15T16:11:28.870Z,75.50
2017-12-15T16:13:55.272Z,75.60
2017-12-15T16:16:21.945Z,76.10
2017-12-15T16:18:48.203Z,76.10
2017-12-15T16:21:14.513Z,75.50
2017-12-15T16:23:40.762Z,75.90
2017-12-15T16:26:07.015Z,76.20
2017-12-15T16:28:33.311Z,76.30
2017-12-15T16:30:59.572Z,76.10
2017-12-15T16:33:25.826Z,75.50
2017-12-15T16:35:52.167Z,75.40
2017-12-15T16:38:18.915Z,75.30
2017-12-15T16:40:45.177Z,75.30
2017-12-15T16:43:12.659Z,75.20
2017-12-15T16:45:38.898Z,76.00
2017-12-15T16:48:05.269Z,75.80
2017-12-15T16:50:31.580Z,75.90
2017-12-15T16:52:58.200Z,75.80
2017-12-15T16:55:24.831Z,76.00
2017-12-15T16:57:51.093Z,76.00
2017-12-15T17:00:17.829Z,76.40
2017-12-15T17:02:44.489Z,77.00
2017-12-15T17:05:10.774Z,77.00
2017-12-15T17:07:37.013Z,76.90
2017-12-15T17:10:03.659Z,76.80
2017-12-15T17:12:30.314Z,77.00
2017-12-15T17:14:56.552Z,77.00
2017-12-15T17:17:22.865Z,76.60
2017-12-15T17:19:49.133Z,76.40
2017-12-15T17:22:15.524Z,76.50
2017-12-15T17:24:41.792Z,76.40
2017-12-15T17:27:08.037Z,76.10
2017-12-15T17:29:34.326Z,75.80
2017-12-15T17:32:00.604Z,75.90
2017-12-15T17:34:27.939Z,75.70
2017-12-15T17:36:54.200Z,75.40
2017-12-15T17:39:20.885Z,75.60
2017-12-15T17:41:47.115Z,75.60
2017-12-15T17:44:13.463Z,76.30
2017-12-15T17:46:39.742Z,76.30
2017-12-15T17:49:06.474Z,76.10
2017-12-15T17:51:32.765Z,76.20
2017-12-15T17:53:59.010Z,76.20
2017-12-15T17:56:25.307Z,76.10
2017-12-15T17:58:51.590Z,76.60
2017-12-15T18:01:18.201Z,77.10
2017-12-15T18:03:44.487Z,77.10
2017-12-15T18:06:10.746Z,77.10
2017-12-15T18:08:37.996Z,77.00
2017-12-15T18:11:04.223Z,76.80
2017-12-15T18:13:30.481Z,76.50
2017-12-15T18:15:57.440Z,76.60
2017-12-15T18:18:23.744Z,76.60
2017-12-15T18:20:50.047Z,76.70
2017-12-15T18:23:16.352Z,76.70
2017-12-15T18:25:42.648Z,76.40
2017-12-15T18:28:09.317Z,76.70
2017-12-15T18:30:35.569Z,76.70
2017-12-15T18:33:01.815Z,77.60
2017-12-15T18:35:28.042Z,78.30
2017-12-15T18:37:54.784Z,77.80
2017-12-15T18:40:21.115Z,77.90
2017-12-15T18:42:47.371Z,78.00
2017-12-15T18:45:13.752Z,77.90
2017-12-15T18:47:40.040Z,77.50
2017-12-15T18:50:06.354Z,77.70
2017-12-15T18:52:32.688Z,77.70
2017-12-15T18:54:58.941Z,77.30
2017-12-15T18:57:25.197Z,77.60
2017-12-15T18:59:51.459Z,77.40
2017-12-15T19:02:17.727Z,76.90
2017-12-15T19:04:44.387Z,77.00
2017-12-15T19:07:10.698Z,77.00
2017-12-15T19:09:37.018Z,76.80
2017-12-15T19:12:03.670Z,76.80
2017-12-15T19:14:29.942Z,76.80
2017-12-15T19:16:56.200Z,76.40
2017-12-15T19:19:22.574Z,76.20
2017-12-15T19:21:48.862Z,76.70
2017-12-15T19:24:15.134Z,76.50
2017-12-15T19:26:41.824Z,76.70
2017-12-15T19:29:08.200Z,76.70
2017-12-15T19:31:34.472Z,76.50
2017-12-15T19:34:01.838Z,76.50
2017-12-15T19:36:28.948Z,76.40
2017-12-15T19:38:55.303Z,76.30
2017-12-15T19:41:21.878Z,76.60
2017-12-15T19:43:48.237Z,76.60
2017-12-15T19:46:14.587Z,76.60
2017-12-15T19:48:40.961Z,76.40
2017-12-15T19:51:07.266Z,76.40
2017-12-15T19:53:34.686Z,76.50
2017-12-15T19:56:01.049Z,76.50
2017-12-15T19:58:29.107Z,76.50
2017-12-15T20:00:55.499Z,76.60
2017-12-15T20:03:22.124Z,76.80
2017-12-15T20:05:49.312Z,76.70
2017-12-15T20:08:15.977Z,76.80
2017-12-15T20:10:42.913Z,77.30
2017-12-15T20:13:09.431Z,77.30
2017-12-15T20:15:36.121Z,77.80
2017-12-15T20:18:02.776Z,78.00
2017-12-15T20:20:29.356Z,78.40
2017-12-15T20:22:55.920Z,78.10
2017-12-15T20:25:24.613Z,79.30
2017-12-15T20:27:51.263Z,79.00
2017-12-15T20:30:17.893Z,79.10
2017-12-15T20:32:44.570Z,79.20
2017-12-15T20:35:11.142Z,78.90
2017-12-15T20:37:37.813Z,78.50
2017-12-15T20:40:04.443Z,78.10
2017-12-15T20:42:31.053Z,78.20
2017-12-15T20:44:57.547Z,78.60
2017-12-15T20:47:24.268Z,79.00
2017-12-15T20:49:50.846Z,78.20
2017-12-15T20:52:17.431Z,78.30
2017-12-15T20:54:43.910Z,78.30
2017-12-15T20:57:10.599Z,77.80
2017-12-15T20:59:37.111Z,77.80
2017-12-15T21:02:03.755Z,78.30
2017-12-15T21:04:30.281Z,78.20
2017-12-15T21:06:56.793Z,78.30
2017-12-15T21:09:23.481Z,78.10
2017-12-15T21:11:49.931Z,78.00
2017-12-15T21:14:16.393Z,78.20
2017-12-15T21:16:42.773Z,78.50
2017-12-15T21:19:09.128Z,78.80
2017-12-15T21:21:35.769Z,78.80
2017-12-15T21:24:02.801Z,79.40
2017-12-15T21:26:30.016Z,79.50
2017-12-15T21:28:56.391Z,79.50
2017-12-15T21:31:22.706Z,79.30
2017-12-15T21:33:49.841Z,79.00
2017-12-15T21:36:16.127Z,78.90
2017-12-15T21:38:42.442Z,78.70
2017-12-15T21:41:08.793Z,78.20
2017-12-15T21:43:37.718Z,78.10
2017-12-15T21:46:04.420Z,78.50
2017-12-15T21:48:30.745Z,78.50
2017-12-15T21:50:57.272Z,78.60
2017-12-15T21:53:24.456Z,79.10
2017-12-15T21:55:51.687Z,79.10
2017-12-15T21:58:18.076Z,78.90
2017-12-15T22:00:44.965Z,79.10
2017-12-15T22:03:11.251Z,78.80
2017-12-15T22:05:37.863Z,78.90
2017-12-15T22:08:07.521Z,78.90
2017-12-15T22:10:33.821Z,79.30
2017-12-15T22:13:00.141Z,79.10
2017-12-15T22:15:26.376Z,78.90
2017-12-15T22:17:52.621Z,78.80
2017-12-15T22:20:20.208Z,78.10
2017-12-15T22:22:46.468Z,78.20
2017-12-15T22:25:12.809Z,78.00
2017-12-15T22:27:39.099Z,77.80
2017-12-15T22:30:05.378Z,77.30
2017-12-15T22:32:31.670Z,77.30
2017-12-15T22:34:58.922Z,76.90
2017-12-15T22:37:25.171Z,77.00
2017-12-15T22:39:51.486Z,77.30
2017-12-15T22:42:17.740Z,77.40
2017-12-15T22:44:44.037Z,77.00
2017-12-15T22:47:10.297Z,76.80
2017-12-15T22:49:36.515Z,76.70
2017-12-15T22:52:02.879Z,76.70
2017-12-15T22:54:30.444Z,76.60
2017-12-15T22:56:57.070Z,76.50
2017-12-15T22:59:23.336Z,76.50
2017-12-15T23:01:49.539Z,76.70
2017-12-15T23:04:16.701Z,76.80
2017-12-15T23:06:43.004Z,76.80
2017-12-15T23:09:09.268Z,76.90
2017-12-15T23:11:35.522Z,77.10
2017-12-15T23:14:01.799Z,77.40
2017-12-15T23:16:28.686Z,77.50
2017-12-15T23:18:55.921Z,77.40
2017-12-15T23:21:22.163Z,77.20
2017-12-15T23:23:48.414Z,76.90
2017-12-15T23:26:14.683Z,77.10
2017-12-15T23:28:41.748Z,77.50
2017-12-15T23:31:08.117Z,77.60
2017-12-15T23:33:34.419Z,77.60
2017-12-15T23:36:00.646Z,77.50
2017-12-15T23:38:26.914Z,77.60
2017-12-15T23:40:53.241Z,78.00
2017-12-15T23:43:19.495Z,78.10
2017-12-15T23:45:45.847Z,77.90
2017-12-15T23:48:12.101Z,78.10
2017-12-15T23:50:38.362Z,77.80
2017-12-15T23:53:04.821Z,77.80
2017-12-15T23:55:43.304Z,78.20
2017-12-15T23:58:09.545Z,78.30
